createdAt,value
2023-03-07T00:02:01.165Z,20.63
2023-03-07T00:04:27.794Z,20.53
2023-03-07T00:06:55.666Z,20.10
2023-03-07T00:09:22.411Z,20.93
2023-03-07T00:11:50.256Z,22.97
2023-03-07T00:14:16.901Z,18.67
2023-03-07T00:16:43.473Z,20.77
2023-03-07T00:19:10.237Z,19.03
2023-03-07T00:21:36.846Z,20.23
2023-03-07T00:24:04.724Z,18.23
2023-03-07T00:26:31.386Z,17.90
2023-03-07T00:28:57.992Z,18.90
2023-03-07T00:31:24.661Z,19.47
2023-03-07T00:33:51.328Z,17.83
2023-03-07T00:36:20.774Z,19.33
2023-03-07T00:38:48.576Z,18.00
2023-03-07T00:41:21.244Z,17.93
2023-03-07T00:43:47.956Z,18.37
2023-03-07T00:46:16.220Z,18.87
2023-03-07T00:48:43.405Z,20.67
2023-03-07T00:51:13.927Z,16.10
2023-03-07T00:53:41.133Z,16.30
2023-03-07T00:56:17.285Z,18.57
2023-03-07T00:58:45.333Z,15.73
2023-03-07T01:01:14.231Z,14.07
2023-03-07T01:03:42.066Z,14.03
2023-03-07T01:06:13.064Z,16.33
2023-03-07T01:08:40.121Z,16.37
2023-03-07T01:11:07.316Z,15.67
2023-03-07T01:13:35.908Z,15.47
2023-03-07T01:16:18.260Z,14.77
2023-03-07T01:18:48.724Z,15.17
2023-03-07T01:21:19.091Z,15.17
2023-03-07T01:23:46.351Z,15.47
2023-03-07T01:26:18.339Z,13.63
2023-03-07T01:28:45.553Z,12.00
2023-03-07T01:31:12.842Z,15.60
2023-03-07T01:33:41.011Z,15.30
2023-03-07T01:36:30.087Z,14.57
2023-03-07T01:39:23.159Z,12.97
2023-03-07T01:41:59.699Z,12.90
2023-03-07T01:44:28.528Z,13.50
2023-03-07T01:47:00.493Z,14.27
2023-03-07T01:49:42.629Z,12.40
2023-03-07T01:52:20.521Z,12.00
2023-03-07T01:55:43.804Z,13.00
2023-03-07T01:58:15.361Z,15.00
2023-03-07T02:00:44.474Z,12.83
2023-03-07T02:03:10.977Z,12.63
2023-03-07T02:06:02.633Z,13.63
2023-03-07T02:08:32.028Z,13.07
2023-03-07T02:10:58.856Z,13.60
2023-03-07T02:13:25.524Z,14.37
2023-03-07T02:15:52.789Z,13.30
2023-03-07T02:18:24.189Z,12.67
2023-03-07T02:21:00.150Z,13.27
2023-03-07T02:23:44.021Z,13.17
2023-03-07T02:26:17.046Z,14.47
2023-03-07T02:28:45.727Z,12.87
2023-03-07T02:31:12.669Z,12.93
2023-03-07T02:33:40.246Z,13.87
2023-03-07T02:36:13.860Z,15.33
2023-03-07T02:38:54.624Z,14.97
2023-03-07T02:41:29.026Z,14.40
2023-03-07T02:43:58.276Z,14.33
2023-03-07T02:46:25.120Z,17.37
2023-03-07T02:48:51.721Z,17.90
2023-03-07T02:51:18.583Z,16.73
2023-03-07T02:53:46.228Z,17.23
2023-03-07T02:56:13.357Z,16.40
2023-03-07T02:58:39.920Z,17.07
2023-03-07T03:01:06.936Z,18.30
2023-03-07T03:03:33.525Z,18.70
2023-03-07T03:06:00.145Z,18.83
2023-03-07T03:08:26.780Z,17.63
2023-03-07T03:10:54.599Z,19.00
2023-03-07T03:13:23.632Z,21.87
2023-03-07T03:15:55.643Z,20.97
2023-03-07T03:18:22.559Z,22.40
2023-03-07T03:20:49.150Z,19.93
2023-03-07T03:23:15.726Z,19.50
2023-03-07T03:25:42.402Z,22.20
2023-03-07T03:28:09.529Z,19.37
2023-03-07T03:30:36.231Z,20.57
2023-03-07T03:33:03.953Z,21.93
2023-03-07T03:35:33.514Z,20.23
2023-03-07T03:38:00.751Z,23.00
2023-03-07T03:40:27.570Z,21.97
2023-03-07T03:42:54.203Z,21.10
2023-03-07T03:45:21.659Z,21.97
2023-03-07T03:47:50.456Z,21.17
2023-03-07T03:50:17.522Z,24.73
2023-03-07T03:52:45.269Z,19.00
2023-03-07T03:55:12.277Z,21.50
2023-03-07T03:57:39.019Z,19.80
2023-03-07T04:00:09.142Z,20.50
2023-03-07T04:02:39.085Z,21.20
2023-03-07T04:05:08.576Z,19.00
2023-03-07T04:07:35.192Z,17.30
2023-03-07T04:10:01.851Z,18.83
2023-03-07T04:12:29.101Z,20.33
2023-03-07T04:14:55.659Z,19.00
2023-03-07T04:17:23.331Z,20.10
2023-03-07T04:19:49.967Z,17.70
2023-03-07T04:22:16.711Z,20.13
2023-03-07T04:24:45.173Z,19.03
2023-03-07T04:27:12.243Z,18.70
2023-03-07T04:29:38.985Z,19.63
2023-03-07T04:32:20.703Z,16.10
2023-03-07T04:34:48.648Z,18.90
2023-03-07T04:37:15.239Z,16.63
2023-03-07T04:39:41.890Z,20.17
2023-03-07T04:42:10.067Z,17.77
2023-03-07T04:44:37.243Z,18.87
2023-03-07T04:47:04.077Z,16.90
2023-03-07T04:49:33.777Z,17.57
2023-03-07T04:52:01.284Z,17.83
2023-03-07T04:54:28.295Z,18.97
2023-03-07T04:56:55.307Z,18.27
2023-03-07T04:59:22.041Z,19.00
2023-03-07T05:01:49.225Z,18.20
2023-03-07T05:04:15.958Z,16.10
2023-03-07T05:06:42.591Z,16.37
2023-03-07T05:09:09.480Z,16.67
2023-03-07T05:11:36.110Z,15.83
2023-03-07T05:14:03.336Z,15.90
2023-03-07T05:16:30.102Z,16.17
2023-03-07T05:18:56.721Z,17.17
2023-03-07T05:21:23.536Z,17.27
2023-03-07T05:23:50.583Z,16.30
2023-03-07T05:26:17.489Z,15.13
2023-03-07T05:28:44.149Z,13.27
2023-03-07T05:31:10.799Z,15.20
2023-03-07T05:33:37.525Z,17.00
2023-03-07T05:36:04.412Z,15.17
2023-03-07T05:38:32.297Z,13.57
2023-03-07T05:40:58.985Z,14.77
2023-03-07T05:43:25.664Z,14.07
2023-03-07T05:45:52.279Z,14.53
2023-03-07T05:48:19.575Z,16.67
2023-03-07T05:50:46.327Z,16.07
2023-03-07T05:53:13.464Z,15.83
2023-03-07T05:55:40.103Z,16.87
2023-03-07T05:58:06.997Z,16.43
2023-03-07T06:00:33.620Z,15.17
2023-03-07T06:03:04.365Z,13.53
2023-03-07T06:05:32.008Z,14.03
2023-03-07T06:07:58.677Z,15.77
2023-03-07T06:10:25.828Z,11.87
2023-03-07T06:12:53.999Z,14.17
2023-03-07T06:15:22.706Z,15.63
2023-03-07T06:17:54.214Z,13.37
2023-03-07T06:20:21.213Z,15.17
2023-03-07T06:22:48.880Z,15.90
2023-03-07T06:25:16.948Z,15.63
2023-03-07T06:27:44.839Z,15.13
2023-03-07T06:30:12.656Z,14.63
2023-03-07T06:32:40.091Z,13.87
2023-03-07T06:35:07.405Z,16.30
2023-03-07T06:37:34.391Z,21.70
2023-03-07T06:40:06.203Z,15.47
2023-03-07T06:42:34.615Z,17.60
2023-03-07T06:45:01.715Z,16.10
2023-03-07T06:47:29.288Z,14.63
2023-03-07T06:49:56.479Z,13.73
2023-03-07T06:52:23.296Z,16.33
2023-03-07T06:54:49.963Z,15.13
2023-03-07T06:57:16.667Z,15.93
2023-03-07T06:59:43.814Z,14.93
2023-03-07T07:02:15.022Z,15.60
2023-03-07T07:04:41.852Z,13.80
2023-03-07T07:07:08.597Z,13.93
2023-03-07T07:09:35.601Z,13.73
2023-03-07T07:12:02.505Z,16.73
2023-03-07T07:14:29.777Z,14.63
2023-03-07T07:16:56.413Z,13.27
2023-03-07T07:19:23.088Z,14.97
2023-03-07T07:21:49.857Z,14.10
2023-03-07T07:24:16.472Z,12.83
2023-03-07T07:26:43.139Z,13.60
2023-03-07T07:29:10.142Z,15.33
2023-03-07T07:31:37.545Z,13.13
2023-03-07T07:34:04.549Z,14.63
2023-03-07T07:36:34.284Z,12.77
2023-03-07T07:39:06.047Z,13.57
2023-03-07T07:41:34.872Z,12.30
2023-03-07T07:44:02.124Z,15.43
2023-03-07T07:46:40.868Z,14.47
2023-03-07T07:49:08.547Z,15.03
2023-03-07T07:51:35.396Z,13.17
2023-03-07T07:54:02.271Z,12.93
2023-03-07T07:56:29.041Z,14.03
2023-03-07T07:58:55.904Z,16.47
2023-03-07T08:01:25.140Z,13.73
2023-03-07T08:03:52.038Z,14.33
2023-03-07T08:06:25.025Z,13.07
2023-03-07T08:08:51.897Z,13.57
2023-03-07T08:11:19.883Z,12.53
2023-03-07T08:13:46.551Z,11.10
2023-03-07T08:16:15.576Z,12.80
2023-03-07T08:18:42.840Z,11.57
2023-03-07T08:21:10.042Z,11.00
2023-03-07T08:23:37.013Z,10.73
2023-03-07T08:26:06.394Z,10.93
2023-03-07T08:28:33.528Z,11.97
2023-03-07T08:31:07.297Z,11.80
2023-03-07T08:33:33.932Z,13.07
2023-03-07T08:36:00.664Z,11.90
2023-03-07T08:38:27.979Z,11.13
2023-03-07T08:40:54.601Z,10.33
2023-03-07T08:43:21.238Z,12.10
2023-03-07T08:45:50.745Z,11.87
2023-03-07T08:48:17.325Z,10.47
2023-03-07T08:50:43.947Z,12.17
2023-03-07T08:53:10.565Z,10.00
2023-03-07T08:55:37.254Z,11.83
2023-03-07T08:58:03.970Z,11.43
2023-03-07T09:00:30.729Z,12.23
2023-03-07T09:03:01.676Z,9.97
2023-03-07T09:05:29.730Z,10.73
2023-03-07T09:07:56.429Z,9.33
2023-03-07T09:10:24.157Z,10.70
2023-03-07T09:12:55.190Z,11.37
2023-03-07T09:15:22.583Z,8.77
2023-03-07T09:17:49.266Z,10.87
2023-03-07T09:20:16.396Z,10.77
2023-03-07T09:22:42.998Z,11.97
2023-03-07T09:25:09.897Z,13.00
2023-03-07T09:27:36.745Z,11.10
2023-03-07T09:30:04.090Z,9.43
2023-03-07T09:32:33.162Z,11.27
2023-03-07T09:34:59.903Z,10.93
2023-03-07T09:37:26.558Z,11.03
2023-03-07T09:39:53.145Z,9.50
2023-03-07T09:42:35.357Z,11.57
2023-03-07T09:45:14.110Z,9.40
2023-03-07T09:48:34.748Z,10.53
2023-03-07T09:51:17.075Z,11.20
2023-03-07T09:53:55.463Z,9.90
2023-03-07T09:56:27.362Z,11.30
2023-03-07T09:59:23.746Z,10.57
2023-03-07T10:02:15.506Z,10.87
2023-03-07T10:04:54.621Z,11.03
2023-03-07T10:07:24.797Z,9.93
2023-03-07T10:09:55.747Z,9.40
2023-03-07T10:12:40.558Z,10.03
2023-03-07T10:15:47.646Z,10.93
2023-03-07T10:18:32.579Z,10.17
2023-03-07T10:21:08.482Z,12.27
2023-03-07T10:23:41.185Z,10.27
2023-03-07T10:26:12.300Z,9.33
2023-03-07T10:28:42.573Z,11.00
2023-03-07T10:31:27.921Z,9.60
2023-03-07T10:33:55.217Z,9.27
2023-03-07T10:36:29.444Z,10.47
2023-03-07T10:39:30.234Z,8.60
2023-03-07T10:41:57.320Z,10.47
2023-03-07T10:44:27.468Z,10.53
2023-03-07T10:46:59.442Z,10.17
2023-03-07T10:49:33.196Z,12.60
2023-03-07T10:52:37.341Z,9.03
2023-03-07T10:55:39.879Z,10.20
2023-03-07T10:58:12.342Z,10.77
2023-03-07T11:00:38.971Z,10.70
2023-03-07T11:03:19.814Z,10.80
2023-03-07T11:05:48.361Z,8.67
2023-03-07T11:08:27.410Z,11.07
2023-03-07T11:10:54.033Z,10.27
2023-03-07T11:13:22.533Z,7.77
2023-03-07T11:15:49.724Z,9.90
2023-03-07T11:18:38.850Z,9.30
2023-03-07T11:21:05.493Z,8.57
2023-03-07T11:23:32.870Z,9.17
2023-03-07T11:26:16.498Z,10.10
2023-03-07T11:28:43.078Z,10.07
2023-03-07T11:31:29.285Z,9.73
2023-03-07T11:34:20.921Z,10.57
2023-03-07T11:36:55.404Z,9.27
2023-03-07T11:39:44.932Z,8.63
2023-03-07T11:42:24.658Z,9.20
2023-03-07T11:44:54.320Z,9.10
2023-03-07T11:47:29.913Z,9.23
2023-03-07T11:50:21.187Z,8.40
2023-03-07T11:53:23.770Z,9.40
2023-03-07T11:56:10.475Z,10.23
2023-03-07T11:58:46.157Z,10.73
2023-03-07T12:01:27.959Z,8.50
2023-03-07T12:04:24.051Z,8.33
2023-03-07T12:07:16.467Z,8.87
2023-03-07T12:10:03.233Z,10.67
2023-03-07T12:12:51.711Z,10.67
2023-03-07T12:15:28.181Z,9.60
2023-03-07T12:18:11.484Z,9.07
2023-03-07T12:21:03.028Z,8.63
2023-03-07T12:23:39.022Z,7.67
2023-03-07T12:26:26.209Z,11.10
2023-03-07T12:29:13.000Z,10.43
2023-03-07T12:31:48.639Z,9.27
2023-03-07T12:34:23.898Z,10.13
2023-03-07T12:36:58.519Z,11.37
2023-03-07T12:39:43.996Z,10.00
2023-03-07T12:42:37.254Z,10.83
2023-03-07T12:45:18.646Z,9.27
2023-03-07T12:47:53.657Z,10.13
2023-03-07T12:50:43.828Z,9.93
2023-03-07T12:53:24.575Z,9.63
2023-03-07T12:56:05.642Z,8.77
2023-03-07T12:58:59.482Z,9.43
2023-03-07T13:01:37.009Z,9.27
2023-03-07T13:04:28.678Z,9.13
2023-03-07T13:07:21.863Z,8.80
2023-03-07T13:09:52.282Z,8.20
2023-03-07T13:12:20.461Z,8.33
2023-03-07T13:14:49.127Z,9.07
2023-03-07T13:17:31.037Z,7.97
2023-03-07T13:20:04.989Z,10.43
2023-03-07T13:22:31.598Z,9.03
2023-03-07T13:25:25.934Z,8.03
2023-03-07T13:27:59.027Z,8.70
2023-03-07T13:30:32.870Z,8.93
2023-03-07T13:33:25.153Z,8.37
2023-03-07T13:35:58.223Z,8.97
2023-03-07T13:38:32.384Z,9.37
2023-03-07T13:41:04.570Z,10.20
2023-03-07T13:43:32.826Z,7.63
2023-03-07T13:46:26.128Z,8.33
2023-03-07T13:48:52.708Z,9.63
2023-03-07T13:51:19.546Z,8.93
2023-03-07T13:53:50.781Z,8.50
2023-03-07T13:56:17.665Z,8.17
2023-03-07T13:58:53.357Z,7.90
2023-03-07T14:01:23.614Z,13.27
2023-03-07T14:03:54.442Z,7.57
2023-03-07T14:06:34.349Z,7.80
2023-03-07T14:09:02.854Z,9.00
2023-03-07T14:11:42.455Z,8.30
2023-03-07T14:14:22.575Z,7.90
2023-03-07T14:16:52.121Z,10.17
2023-03-07T14:19:36.683Z,8.70
2023-03-07T14:22:21.957Z,11.33
2023-03-07T14:25:09.823Z,7.13
2023-03-07T14:27:53.505Z,9.30
2023-03-07T14:30:21.595Z,8.63
2023-03-07T14:32:49.116Z,7.47
2023-03-07T14:35:16.033Z,7.07
2023-03-07T14:37:44.490Z,8.67
2023-03-07T14:40:26.334Z,8.43
2023-03-07T14:43:16.189Z,9.40
2023-03-07T14:46:21.586Z,9.37
2023-03-07T14:49:01.259Z,10.63
2023-03-07T14:51:29.638Z,8.90
2023-03-07T14:53:57.319Z,9.43
2023-03-07T14:56:28.815Z,8.53
2023-03-07T14:58:59.498Z,8.37
2023-03-07T15:01:35.555Z,9.23
2023-03-07T15:04:08.554Z,9.23
2023-03-07T15:06:44.127Z,8.50
2023-03-07T15:09:11.073Z,7.17
2023-03-07T15:11:52.360Z,8.50
2023-03-07T15:14:44.572Z,9.90
2023-03-07T15:17:17.174Z,8.03
2023-03-07T15:19:48.775Z,8.10
2023-03-07T15:22:40.297Z,10.83
2023-03-07T15:25:27.245Z,10.10
2023-03-07T15:28:05.896Z,8.07
2023-03-07T15:30:35.198Z,6.17
2023-03-07T15:33:20.578Z,9.77
2023-03-07T15:36:11.472Z,11.13
2023-03-07T15:38:43.944Z,9.80
2023-03-07T15:41:29.700Z,10.23
2023-03-07T15:44:11.558Z,10.80
2023-03-07T15:46:53.352Z,9.13
2023-03-07T15:49:41.816Z,11.93
2023-03-07T15:52:19.125Z,9.80
2023-03-07T15:54:51.634Z,13.67
2023-03-07T15:57:21.934Z,11.27
2023-03-07T16:00:00.493Z,9.50
2023-03-07T16:02:33.129Z,11.20
2023-03-07T16:05:02.181Z,11.27
2023-03-07T16:07:28.984Z,13.00
2023-03-07T16:09:55.581Z,10.57
2023-03-07T16:12:24.415Z,11.23
2023-03-07T16:14:53.605Z,10.97
2023-03-07T16:17:26.857Z,10.40
2023-03-07T16:19:53.985Z,10.77
2023-03-07T16:22:20.648Z,10.13
2023-03-07T16:24:47.444Z,10.87
2023-03-07T16:27:17.680Z,9.80
2023-03-07T16:29:45.372Z,10.27
2023-03-07T16:32:21.370Z,10.67
2023-03-07T16:34:51.366Z,9.60
2023-03-07T16:37:18.877Z,9.60
2023-03-07T16:39:46.071Z,8.83
2023-03-07T16:42:23.331Z,11.97
2023-03-07T16:44:52.155Z,9.80
2023-03-07T16:47:19.420Z,10.37
2023-03-07T16:49:51.146Z,10.20
2023-03-07T16:52:18.410Z,9.07
2023-03-07T16:54:45.792Z,10.47
2023-03-07T16:57:15.389Z,8.93
2023-03-07T16:59:47.937Z,9.77
2023-03-07T17:02:20.635Z,11.43
2023-03-07T17:04:48.775Z,16.47
2023-03-07T17:07:22.197Z,26.23
2023-03-07T17:09:50.060Z,11.47
2023-03-07T17:12:25.768Z,9.60
2023-03-07T17:14:53.767Z,11.33
2023-03-07T17:17:30.610Z,10.30
2023-03-07T17:19:57.803Z,11.60
2023-03-07T17:22:24.487Z,12.43
2023-03-07T17:24:51.377Z,11.57
2023-03-07T17:27:19.336Z,10.67
2023-03-07T17:29:53.129Z,15.80
2023-03-07T17:32:20.529Z,11.47
2023-03-07T17:34:47.503Z,13.87
2023-03-07T17:37:15.012Z,14.23
2023-03-07T17:39:42.734Z,12.33
2023-03-07T17:42:09.871Z,16.10
2023-03-07T17:44:36.691Z,16.07
2023-03-07T17:47:03.958Z,14.63
2023-03-07T17:49:36.397Z,14.87
2023-03-07T17:52:05.216Z,12.70
2023-03-07T17:54:33.164Z,11.00
2023-03-07T17:57:01.462Z,13.57
2023-03-07T17:59:29.755Z,14.07
2023-03-07T18:01:58.390Z,13.23
2023-03-07T18:04:25.129Z,12.60
2023-03-07T18:06:51.984Z,12.73
2023-03-07T18:09:23.075Z,11.17
2023-03-07T18:11:50.401Z,13.30
2023-03-07T18:14:17.541Z,13.47
2023-03-07T18:16:44.770Z,14.63
2023-03-07T18:19:25.388Z,13.43
2023-03-07T18:21:53.410Z,12.60
2023-03-07T18:24:23.487Z,14.93
2023-03-07T18:26:50.634Z,10.90
2023-03-07T18:29:18.219Z,14.50
2023-03-07T18:31:45.692Z,12.80
2023-03-07T18:34:12.809Z,11.03
2023-03-07T18:36:41.140Z,10.47
2023-03-07T18:39:10.756Z,11.60
2023-03-07T18:41:38.554Z,12.70
2023-03-07T18:44:05.858Z,14.50
2023-03-07T18:46:33.136Z,15.83
2023-03-07T18:49:01.154Z,12.77
2023-03-07T18:51:28.252Z,16.03
2023-03-07T18:53:58.226Z,11.67
2023-03-07T18:56:26.256Z,12.50
2023-03-07T18:58:58.911Z,14.90
2023-03-07T19:01:27.390Z,11.87
2023-03-07T19:03:55.441Z,14.53
2023-03-07T19:06:24.749Z,11.70
2023-03-07T19:08:51.656Z,9.87
2023-03-07T19:11:18.953Z,9.80
2023-03-07T19:13:45.615Z,10.03
2023-03-07T19:16:15.337Z,8.97
2023-03-07T19:18:43.386Z,7.17
2023-03-07T19:21:16.425Z,7.77
2023-03-07T19:23:43.184Z,6.83
2023-03-07T19:26:13.101Z,6.57
2023-03-07T19:28:40.452Z,3.80
2023-03-07T19:31:12.102Z,6.57
2023-03-07T19:33:39.411Z,5.00
2023-03-07T19:36:12.724Z,5.10
2023-03-07T19:38:39.940Z,5.10
2023-03-07T19:41:11.855Z,4.63
2023-03-07T19:43:38.440Z,18.70
2023-03-07T19:46:07.207Z,8.23
2023-03-07T19:48:33.909Z,16.10
2023-03-07T19:51:01.412Z,6.37
2023-03-07T19:53:29.137Z,4.07
2023-03-07T19:55:56.069Z,6.07
2023-03-07T19:58:23.372Z,8.43
2023-03-07T20:00:50.440Z,10.60
2023-03-07T20:03:19.874Z,5.07
2023-03-07T20:05:48.966Z,5.40
2023-03-07T20:08:16.747Z,5.03
2023-03-07T20:10:44.735Z,7.53
2023-03-07T20:13:13.749Z,3.03
2023-03-07T20:15:40.923Z,1.83
2023-03-07T20:18:08.009Z,3.00
2023-03-07T20:20:35.620Z,1.93
2023-03-07T20:23:02.327Z,1.80
2023-03-07T20:25:30.178Z,2.47
2023-03-07T20:27:58.124Z,1.87
2023-03-07T20:30:25.087Z,2.00
2023-03-07T20:32:52.012Z,1.80
2023-03-07T20:35:19.692Z,1.50
2023-03-07T20:37:46.783Z,1.50
2023-03-07T20:40:14.462Z,1.80
2023-03-07T20:42:41.514Z,2.20
2023-03-07T20:45:09.220Z,1.10
2023-03-07T20:47:38.624Z,1.07
2023-03-07T20:50:06.265Z,1.07
2023-03-07T20:52:35.694Z,0.90
2023-03-07T20:55:02.616Z,1.30
2023-03-07T20:57:29.660Z,1.40
2023-03-07T20:59:56.877Z,0.93
2023-03-07T21:02:24.456Z,1.03
2023-03-07T21:04:51.447Z,1.30
2023-03-07T21:07:18.669Z,1.33
2023-03-07T21:09:50.918Z,1.47
2023-03-07T21:12:18.406Z,2.70
2023-03-07T21:14:45.603Z,1.97
2023-03-07T21:17:13.486Z,1.80
2023-03-07T21:19:42.621Z,1.50
2023-03-07T21:22:09.232Z,3.50
2023-03-07T21:24:35.811Z,4.40
2023-03-07T21:27:02.452Z,2.03
2023-03-07T21:29:29.125Z,1.70
2023-03-07T21:31:55.814Z,2.10
2023-03-07T21:34:22.415Z,2.30
2023-03-07T21:36:49.027Z,2.13
2023-03-07T21:39:15.661Z,2.50
2023-03-07T21:41:42.223Z,2.43
2023-03-07T21:44:09.768Z,3.83
2023-03-07T21:46:36.544Z,3.83
2023-03-07T21:49:03.614Z,4.17
2023-03-07T21:51:30.276Z,4.10
2023-03-07T21:53:57.210Z,5.63
2023-03-07T21:56:24.032Z,3.93
2023-03-07T21:58:51.166Z,3.87
2023-03-07T22:01:23.569Z,3.47
2023-03-07T22:03:54.416Z,3.30
2023-03-07T22:06:22.216Z,2.87
2023-03-07T22:08:48.885Z,4.77
2023-03-07T22:11:15.584Z,2.77
2023-03-07T22:13:42.525Z,2.70
2023-03-07T22:16:14.508Z,2.50
2023-03-07T22:18:41.536Z,2.73
2023-03-07T22:21:14.119Z,2.33
2023-03-07T22:23:41.658Z,3.70
2023-03-07T22:26:10.211Z,3.03
2023-03-07T22:28:37.197Z,3.40
2023-03-07T22:31:06.804Z,8.33
2023-03-07T22:33:33.649Z,8.83
2023-03-07T22:36:02.889Z,7.90
2023-03-07T22:38:29.809Z,5.73
2023-03-07T22:41:11.485Z,6.17
2023-03-07T22:43:38.415Z,6.17
2023-03-07T22:46:05.707Z,6.93
2023-03-07T22:48:32.514Z,6.40
2023-03-07T22:50:59.870Z,6.23
2023-03-07T22:53:33.519Z,5.70
2023-03-07T22:56:00.890Z,6.37
2023-03-07T22:58:28.609Z,6.20
2023-03-07T23:00:55.221Z,6.93
2023-03-07T23:03:23.390Z,6.90
2023-03-07T23:05:50.097Z,9.53
2023-03-07T23:08:16.756Z,7.50
2023-03-07T23:10:43.321Z,7.50
2023-03-07T23:13:09.906Z,9.30
2023-03-07T23:15:41.122Z,7.03
2023-03-07T23:18:08.175Z,9.37
2023-03-07T23:20:39.064Z,7.93
2023-03-07T23:23:06.036Z,8.03
2023-03-07T23:25:33.221Z,7.33
2023-03-07T23:27:59.885Z,6.10
2023-03-07T23:30:26.478Z,5.30
2023-03-07T23:32:54.439Z,5.40
2023-03-07T23:35:21.006Z,4.87
2023-03-07T23:37:48.324Z,4.57
2023-03-07T23:40:15.012Z,4.93
2023-03-07T23:42:41.685Z,5.03
2023-03-07T23:45:08.802Z,5.03
2023-03-07T23:47:35.517Z,5.87
2023-03-07T23:50:02.487Z,5.23
2023-03-07T23:52:29.050Z,5.43
2023-03-07T23:54:55.779Z,5.00
2023-03-07T23:57:22.479Z,6.27
2023-03-07T23:59:49.159Z,6.53
